Time;durP1;ratioP1;P1;durP2;ratioP2;P2;SDS_P1;SDS_P2;PMS_P1;PMS_P2;Temp;Humidity;BMP_temperature;BMP_pressure;BME280_temperature;BME280_humidity;BME280_pressure;Samples;Min_cycle;Max_cycle;Signal;HPM_P1;HPM_P2
2023/04/06 00:00:04;;;;;;;;;;;;;;;-140.72;94.41;52786.56;5027115;28;19968;-69
2023/04/06 00:02:29;;;;;;;;;;;;;;;-140.72;87.47;52788.59;5027054;28;20016;-69
2023/04/06 00:04:55;;;;;;;;;;;;;;;-140.72;85.16;52810.91;5027347;28;20019;-69
2023/04/06 00:07:20;;;;;;;;;;;;;;;-140.72;78.85;52821.06;5027321;28;19921;-69
2023/04/06 00:09:46;;;;;;;;;;;;;;;-140.72;71.90;52808.88;5025105;27;20289;-69
2023/04/06 00:12:11;;;;;;;;;;;;;;;-140.72;80.13;52827.16;5026883;28;20379;-68
2023/04/06 00:14:36;;;;;;;;;;;;;;;-140.72;61.38;52796.72;5026491;28;19947;-68
2023/04/06 00:17:02;;;;;;;;;;;;;;;-140.72;53.74;52853.53;5020944;28;20276;-68
2023/04/06 00:19:27;;;;;;;;;;;;;;;-140.72;31.58;52833.22;5027124;28;19929;-68
2023/04/06 00:21:52;;;;;;;;;;;;;;;-140.72;26.93;52835.25;5027138;28;19921;-68
2023/04/06 00:24:17;;;;;;;;;;;;;;;-140.72;0.00;52778.44;5025036;28;19971;-68
2023/04/06 00:26:43;;;;;;;;;;;;;;;-140.72;0.00;52802.78;5020659;28;19922;-68
2023/04/06 00:29:08;;;;;;;;;;;;;;;-140.72;0.00;52788.59;5021763;28;19929;-69
2023/04/06 00:31:33;;;;;;;;;;;;;;;-140.72;0.00;52829.19;5026130;28;20413;-69
2023/04/06 00:33:58;;;;;;;;;;;;;;;-140.72;0.00;52827.16;5024494;28;19921;-69
2023/04/06 00:36:23;;;;;;;;;;;;;;;-140.72;0.00;52831.19;5027413;28;19921;-69
2023/04/06 00:38:49;;;;;;;;;;;;;;;-140.72;0.00;52812.94;5026662;28;20007;-69
2023/04/06 00:41:24;;;;;;;;;;;;;;;-140.72;0.00;52821.06;5025946;28;19966;-69
2023/04/06 00:43:50;;;;;;;;;;;;;;;-140.72;0.00;52758.16;5027405;28;19917;-69
2023/04/06 00:46:26;;;;;;;;;;;;;;;-140.72;0.00;52794.69;5018522;28;20395;-69
2023/04/06 00:48:51;;;;;;;;;;;;;;;-140.72;0.00;52817.00;5015670;28;19936;-68
2023/04/06 00:51:16;;;;;;;;;;;;;;;-140.72;0.00;52800.75;5026272;28;20340;-69
2023/04/06 00:53:41;;;;;;;;;;;;;;;-140.72;0.00;52772.34;5030990;28;19961;-69
2023/04/06 00:56:09;;;;;;;;;;;;;;;-140.72;0.00;52814.97;5038670;28;19921;-69
2023/04/06 00:58:37;;;;;;;;;;;;;;;-140.72;0.00;52869.75;5016837;28;19964;-69
2023/04/06 01:01:03;;;;;;;;;;;;;;;-140.72;0.00;52794.69;5029537;28;20011;-69
2023/04/06 01:03:28;;;;;;;;;;;;;;;-140.72;0.00;52814.97;5025450;28;20016;-69
2023/04/06 01:05:57;;;;;;;;;;;;;;;-140.72;0.00;52845.41;5012254;28;19971;-69
2023/04/06 01:08:23;;;;;;;;;;;;;;;-140.72;0.00;52804.81;5027272;28;19970;-69
2023/04/06 01:10:50;;;;;;;;;;;;;;;-140.72;0.00;52812.94;5017024;28;20209;-68
2023/04/06 01:13:15;;;;;;;;;;;;;;;-140.72;0.00;52823.09;5032401;28;19918;-69
2023/04/06 01:15:41;;;;;;;;;;;;;;;-140.72;0.00;52849.47;5016652;28;20035;-69
2023/04/06 01:18:10;;;;;;;;;;;;;;;-140.72;0.00;52808.88;5027160;28;19917;-69
2023/04/06 01:20:35;;;;;;;;;;;;;;;-140.72;0.00;52841.34;5012954;28;20387;-69
2023/04/06 01:23:13;;;;;;;;;;;;;;;-140.72;0.00;52835.25;5019001;28;19935;-69
2023/04/06 01:25:38;;;;;;;;;;;;;;;-140.72;0.00;52804.81;5025977;28;19921;-69
2023/04/06 01:28:03;;;;;;;;;;;;;;;-140.72;0.00;52784.53;5019698;28;20333;-69
2023/04/06 01:30:28;;;;;;;;;;;;;;;-140.72;0.00;52845.41;5024239;28;20363;-69
2023/04/06 01:32:54;;;;;;;;;;;;;;;-140.72;0.00;52792.66;5027723;28;20387;-69
2023/04/06 01:35:19;;;;;;;;;;;;;;;-140.72;0.00;52847.44;5026891;28;20402;-68
2023/04/06 01:37:45;;;;;;;;;;;;;;;-140.72;0.00;52827.16;5030710;28;20283;-68
2023/04/06 01:40:11;;;;;;;;;;;;;;;-140.72;0.00;52802.78;5030615;28;19917;-69
2023/04/06 01:42:36;;;;;;;;;;;;;;;-140.72;0.00;52792.66;5032799;28;19921;-69
2023/04/06 01:45:01;;;;;;;;;;;;;;;-140.72;0.00;52819.03;5030228;28;20022;-69
2023/04/06 01:47:27;;;;;;;;;;;;;;;-140.72;0.00;52804.81;5029941;28;19958;-69
2023/04/06 01:49:52;;;;;;;;;;;;;;;-140.72;0.00;52808.88;5026815;28;19917;-69
2023/04/06 01:52:17;;;;;;;;;;;;;;;-140.72;0.00;52825.13;5012154;28;19951;-69
2023/04/06 01:54:42;;;;;;;;;;;;;;;-140.72;0.00;52786.56;5030022;28;20045;-69
2023/04/06 01:57:08;;;;;;;;;;;;;;;-140.72;0.00;52817.00;5031903;28;19924;-69
2023/04/06 01:59:33;;;;;;;;;;;;;;;-140.72;0.00;52806.84;5028129;28;19922;-69
2023/04/06 02:01:58;;;;;;;;;;;;;;;-140.72;0.00;52831.19;5028765;28;19917;-69
2023/04/06 02:04:23;;;;;;;;;;;;;;;-140.72;0.00;52796.72;5022932;28;19922;-69
2023/04/06 02:06:48;;;;;;;;;;;;;;;-140.72;0.00;52825.13;5022507;28;19985;-68
2023/04/06 02:09:14;;;;;;;;;;;;;;;-140.72;0.00;52804.81;5030018;28;20332;-68
2023/04/06 02:11:39;;;;;;;;;;;;;;;-140.72;0.00;52786.56;5028226;28;20360;-68
2023/04/06 02:14:05;;;;;;;;;;;;;;;-140.72;0.00;52784.53;5043593;28;19921;-68
2023/04/06 02:16:30;;;;;;;;;;;;;;;-140.72;0.00;52847.44;5026297;28;19917;-68
2023/04/06 02:18:55;;;;;;;;;;;;;;;-140.72;0.00;52833.22;5029502;28;19922;-68
2023/04/06 02:21:23;;;;;;;;;;;;;;;-140.72;0.00;52817.00;5025788;28;20021;-68
2023/04/06 02:23:49;;;;;;;;;;;;;;;-140.72;0.00;52802.78;5029486;28;19917;-68
2023/04/06 02:26:29;;;;;;;;;;;;;;;-140.72;0.00;52829.19;5020558;28;19925;-68
2023/04/06 02:28:55;;;;;;;;;;;;;;;-140.72;0.00;52825.13;5032649;28;19923;-68
2023/04/06 02:31:20;;;;;;;;;;;;;;;-140.72;0.00;52800.75;5030139;28;20016;-68
2023/04/06 02:33:45;;;;;;;;;;;;;;;-140.72;0.00;52792.66;5024710;28;19920;-68
2023/04/06 02:36:10;;;;;;;;;;;;;;;-140.72;0.00;52788.59;5032791;28;19946;-68
2023/04/06 02:39:01;;;;;;;;;;;;;;;-140.72;0.00;52812.94;5034756;28;19956;-68
2023/04/06 02:41:26;;;;;;;;;;;;;;;-140.72;0.00;52829.19;5028207;28;20028;-68
2023/04/06 02:43:53;;;;;;;;;;;;;;;-140.72;0.00;52780.47;5032789;28;20008;-67
2023/04/06 02:46:18;;;;;;;;;;;;;;;-140.72;0.00;52794.69;5023693;28;20359;-69
2023/04/06 02:48:43;;;;;;;;;;;;;;;-140.72;0.00;52788.59;5033319;28;19964;-67
2023/04/06 02:51:08;;;;;;;;;;;;;;;-140.72;0.00;52792.66;5023338;28;19924;-68
2023/04/06 02:53:41;;;;;;;;;;;;;;;-140.72;0.00;52792.66;5025104;27;19918;-68
2023/04/06 02:56:06;;;;;;;;;;;;;;;-140.72;0.00;52808.88;5025784;28;20361;-68
2023/04/06 02:58:32;;;;;;;;;;;;;;;-140.72;0.00;52772.34;5032556;28;19925;-68
2023/04/06 03:00:57;;;;;;;;;;;;;;;-140.72;0.00;52810.91;5030821;28;19921;-68
2023/04/06 03:03:23;;;;;;;;;;;;;;;-140.72;0.00;52798.72;5026669;28;20016;-68
2023/04/06 03:05:48;;;;;;;;;;;;;;;-140.72;0.00;52792.66;5031751;28;19949;-68
2023/04/06 03:08:13;;;;;;;;;;;;;;;-140.72;0.00;52833.22;5031565;28;19924;-67
2023/04/06 03:10:38;;;;;;;;;;;;;;;-140.72;0.00;52774.38;5027397;28;20294;-67
2023/04/06 03:13:04;;;;;;;;;;;;;;;-140.72;0.00;52794.69;5033157;28;19917;-67
2023/04/06 03:15:29;;;;;;;;;;;;;;;-140.72;0.00;52796.72;5039453;28;20012;-68
2023/04/06 03:17:54;;;;;;;;;;;;;;;-140.72;0.00;52772.34;5032633;28;19928;-68
2023/04/06 03:20:19;;;;;;;;;;;;;;;-140.72;0.00;52792.66;5032552;28;19925;-68
2023/04/06 03:22:45;;;;;;;;;;;;;;;-140.72;0.00;52772.34;5032336;28;20432;-68
2023/04/06 03:25:10;;;;;;;;;;;;;;;-140.72;0.00;52762.22;5031928;28;19958;-67
2023/04/06 03:27:35;;;;;;;;;;;;;;;-140.72;0.00;52758.16;5030854;28;19981;-68
2023/04/06 03:30:01;;;;;;;;;;;;;;;-140.72;0.00;52817.00;5013766;28;19928;-68
2023/04/06 03:32:26;;;;;;;;;;;;;;;-140.72;0.00;52792.66;5028790;28;19978;-67
2023/04/06 03:34:51;;;;;;;;;;;;;;;-140.72;0.00;52808.88;5031312;28;20375;-67
2023/04/06 03:37:17;;;;;;;;;;;;;;;-140.72;0.00;52819.03;5029784;28;19917;-67
2023/04/06 03:39:42;;;;;;;;;;;;;;;-140.72;0.00;52788.59;5037873;28;19923;-67
2023/04/06 03:42:07;;;;;;;;;;;;;;;-140.72;0.00;52812.94;5035610;28;19981;-67
2023/04/06 03:44:32;;;;;;;;;;;;;;;-140.72;0.00;52802.78;5033611;28;19964;-67
2023/04/06 03:46:57;;;;;;;;;;;;;;;-140.72;0.00;52800.75;5032173;28;19921;-67
2023/04/06 03:49:23;;;;;;;;;;;;;;;-140.72;0.00;52780.47;5019379;28;19917;-67
2023/04/06 03:51:48;;;;;;;;;;;;;;;-140.72;0.00;52784.53;5028320;28;19925;-67
2023/04/06 03:54:13;;;;;;;;;;;;;;;-140.72;0.00;52792.66;5020869;28;19924;-68
2023/04/06 03:56:38;;;;;;;;;;;;;;;-140.72;0.00;52788.59;5032892;28;20008;-68
2023/04/06 03:59:04;;;;;;;;;;;;;;;-140.72;0.00;52754.09;5025881;28;20035;-68
2023/04/06 04:01:29;;;;;;;;;;;;;;;-140.72;0.00;52806.84;5023062;28;20363;-68
2023/04/06 04:03:54;;;;;;;;;;;;;;;-140.72;9.56;52819.03;5018292;28;19917;-67
2023/04/06 04:06:20;;;;;;;;;;;;;;;-140.72;23.44;52833.22;5019896;28;19928;-71
2023/04/06 04:08:45;;;;;;;;;;;;;;;-140.72;25.84;52821.06;5018816;28;19932;-67
2023/04/06 04:11:10;;;;;;;;;;;;;;;-140.72;25.01;52796.72;5026960;28;19928;-68
2023/04/06 04:13:36;;;;;;;;;;;;;;;-140.72;25.56;52786.56;5023235;28;19918;-68
2023/04/06 04:16:01;;;;;;;;;;;;;;;-140.72;21.32;52743.94;5027595;28;20358;-68
2023/04/06 04:18:26;;;;;;;;;;;;;;;-140.72;20.36;52798.72;5027102;28;19952;-68
2023/04/06 04:20:52;;;;;;;;;;;;;;;-140.72;21.21;52831.19;5017770;28;19964;-67
2023/04/06 04:23:17;;;;;;;;;;;;;;;-140.72;23.16;52808.88;5018275;28;19929;-70
2023/04/06 04:25:43;;;;;;;;;;;;;;;-140.72;18.51;52800.75;5024547;28;19917;-68
2023/04/06 04:28:08;;;;;;;;;;;;;;;-140.72;20.62;52823.09;5031751;28;19993;-68
2023/04/06 04:30:33;;;;;;;;;;;;;;;-140.72;16.40;52784.53;5036520;28;19925;-68
2023/04/06 04:32:58;;;;;;;;;;;;;;;-140.72;22.39;52825.13;5020905;28;19932;-68
2023/04/06 04:35:24;;;;;;;;;;;;;;;-140.72;10.53;52819.03;5031665;28;20287;-68
2023/04/06 04:37:49;;;;;;;;;;;;;;;-140.72;6.05;52835.25;5025122;28;19960;-68
2023/04/06 04:40:16;;;;;;;;;;;;;;;-140.72;1.91;52780.47;5027701;28;19921;-69
2023/04/06 04:42:41;;;;;;;;;;;;;;;-140.72;0.00;52731.75;5030905;28;19952;-69
2023/04/06 04:45:07;;;;;;;;;;;;;;;-140.72;0.00;52802.78;5026216;28;20018;-69
2023/04/06 04:47:32;;;;;;;;;;;;;;;-140.72;0.00;52780.47;5019122;28;19956;-69
2023/04/06 04:49:57;;;;;;;;;;;;;;;-140.72;0.00;52802.78;5031571;28;19928;-69
2023/04/06 04:52:22;;;;;;;;;;;;;;;-140.72;0.00;52788.59;5025081;28;19917;-69
2023/04/06 04:54:47;;;;;;;;;;;;;;;-140.72;0.00;52790.63;5029040;28;20294;-71
2023/04/06 04:57:13;;;;;;;;;;;;;;;-140.72;0.00;52798.72;5024616;28;20371;-69
2023/04/06 04:59:38;;;;;;;;;;;;;;;-140.72;0.00;52780.47;5037788;28;19921;-68
2023/04/06 05:02:03;;;;;;;;;;;;;;;-140.72;0.00;52800.75;5026605;28;19963;-68
2023/04/06 05:04:28;;;;;;;;;;;;;;;-140.72;0.00;52770.31;5028111;28;19925;-68
2023/04/06 05:07:06;;;;;;;;;;;;;;;-140.72;0.00;52774.38;5031876;28;19917;-68
2023/04/06 05:09:32;;;;;;;;;;;;;;;-140.72;0.00;52780.47;5025570;28;20295;-69
2023/04/06 05:11:58;;;;;;;;;;;;;;;-140.72;0.00;52786.56;5023766;28;19918;-69
2023/04/06 05:14:23;;;;;;;;;;;;;;;-140.72;0.00;52784.53;5025201;28;19917;-69
2023/04/06 05:16:49;;;;;;;;;;;;;;;-140.72;0.00;52780.47;5030806;28;19924;-69
2023/04/06 05:19:14;;;;;;;;;;;;;;;-140.72;0.00;52782.50;5031255;28;20003;-69
2023/04/06 05:21:39;;;;;;;;;;;;;;;-140.72;0.00;52786.56;5016669;28;19974;-69
2023/04/06 05:24:05;;;;;;;;;;;;;;;-140.72;0.00;52788.59;5024750;28;19928;-69
2023/04/06 05:26:38;;;;;;;;;;;;;;;-140.72;0.00;52743.94;5026215;28;19924;-70
2023/04/06 05:29:03;;;;;;;;;;;;;;;-140.72;0.00;52796.72;5021995;28;19971;-72
2023/04/06 05:31:29;;;;;;;;;;;;;;;-140.72;0.00;52752.06;5027152;28;20268;-73
2023/04/06 05:33:55;;;;;;;;;;;;;;;-140.72;0.00;52772.34;5018103;28;19918;-72
2023/04/06 05:36:20;;;;;;;;;;;;;;;-140.72;0.00;52798.72;5013895;28;19917;-72
2023/04/06 05:38:45;;;;;;;;;;;;;;;-140.72;0.00;52778.44;5030631;28;19917;-70
2023/04/06 05:41:10;;;;;;;;;;;;;;;-140.72;0.00;52774.38;5022550;28;19924;-68
2023/04/06 05:43:36;;;;;;;;;;;;;;;-140.72;0.00;52804.81;5025218;28;19917;-69
2023/04/06 05:46:01;;;;;;;;;;;;;;;-140.72;0.00;52776.41;5026452;28;20295;-69
2023/04/06 05:48:27;;;;;;;;;;;;;;;-140.72;0.00;52788.59;5030214;28;19917;-70
2023/04/06 05:50:53;;;;;;;;;;;;;;;-140.72;0.00;52792.66;5028951;28;19917;-69
2023/04/06 05:53:18;;;;;;;;;;;;;;;-140.72;0.00;52812.94;5020144;28;20321;-69
2023/04/06 05:55:43;;;;;;;;;;;;;;;-140.72;0.00;52792.66;5015334;28;21501;-69
2023/04/06 05:58:09;;;;;;;;;;;;;;;-140.72;0.00;52790.63;5009911;28;19965;-69
2023/04/06 06:00:34;;;;;;;;;;;;;;;-140.72;0.00;52796.72;5026675;28;19965;-69
2023/04/06 06:02:59;;;;;;;;;;;;;;;-140.72;0.00;52748.00;5030905;28;19917;-69
2023/04/06 06:05:25;;;;;;;;;;;;;;;-140.72;0.00;52764.25;5031082;28;19921;-69
2023/04/06 06:07:50;;;;;;;;;;;;;;;-140.72;0.00;52817.00;5036712;28;19917;-69
2023/04/06 06:10:15;;;;;;;;;;;;;;;-140.72;0.00;52821.06;5037147;28;19925;-69
2023/04/06 06:12:40;;;;;;;;;;;;;;;-140.72;0.00;52774.38;5037209;28;19921;-69
2023/04/06 06:15:06;;;;;;;;;;;;;;;-140.72;0.00;52778.44;5037137;28;19924;-69
2023/04/06 06:17:31;;;;;;;;;;;;;;;-140.72;0.00;52760.19;5033459;28;19921;-69
2023/04/06 06:19:57;;;;;;;;;;;;;;;-140.72;0.00;52782.50;5036052;28;20008;-69
2023/04/06 06:22:25;;;;;;;;;;;;;;;-140.72;0.00;52776.41;5035005;28;19918;-69
2023/04/06 06:24:50;;;;;;;;;;;;;;;-140.72;0.00;52780.47;5017430;28;19924;-69
2023/04/06 06:27:15;;;;;;;;;;;;;;;-140.72;0.00;52752.06;5021253;28;19917;-69
2023/04/06 06:29:41;;;;;;;;;;;;;;;-140.72;0.00;52766.25;5030361;28;19963;-69
2023/04/06 06:32:07;;;;;;;;;;;;;;;-140.72;0.00;52808.88;5031706;28;19917;-69
2023/04/06 06:34:33;;;;;;;;;;;;;;;-140.72;0.00;52745.97;5041874;28;19924;-69
2023/04/06 06:36:58;;;;;;;;;;;;;;;-140.72;0.00;52776.41;5036626;28;19917;-68
2023/04/06 06:39:23;;;;;;;;;;;;;;;-140.72;0.00;52788.59;5035624;28;19917;-69
2023/04/06 06:41:48;;;;;;;;;;;;;;;-140.72;0.00;52756.13;5035334;28;19966;-69
2023/04/06 06:44:14;;;;;;;;;;;;;;;-140.72;0.00;52745.97;5037487;28;19924;-69
2023/04/06 06:46:40;;;;;;;;;;;;;;;-140.72;0.00;52774.38;5035951;28;20447;-69
2023/04/06 06:49:05;;;;;;;;;;;;;;;-140.72;0.00;52764.25;5024284;28;20402;-69
2023/04/06 06:51:31;;;;;;;;;;;;;;;-140.72;0.00;52735.81;5037272;28;19917;-69
2023/04/06 06:53:58;;;;;;;;;;;;;;;-140.72;0.00;52756.13;5035652;28;19917;-69
2023/04/06 06:56:23;;;;;;;;;;;;;;;-140.72;0.00;52709.44;5032810;28;19917;-69
2023/04/06 06:58:49;;;;;;;;;;;;;;;-140.72;0.00;52697.28;5017466;27;19917;-69
2023/04/06 07:01:14;;;;;;;;;;;;;;;-140.72;0.00;52733.78;5017329;28;19928;-69
2023/04/06 07:03:40;;;;;;;;;;;;;;;-140.72;0.00;52691.19;5035128;28;19917;-70
2023/04/06 07:06:05;;;;;;;;;;;;;;;-140.72;0.00;52683.06;5035567;28;19959;-69
2023/04/06 07:08:31;;;;;;;;;;;;;;;-140.72;0.00;52719.59;5031059;28;19929;-69
2023/04/06 07:10:56;;;;;;;;;;;;;;;-140.72;0.00;52752.06;5015603;28;19996;-69
2023/04/06 07:13:22;;;;;;;;;;;;;;;-140.72;0.00;52709.44;5034601;28;19935;-68
2023/04/06 07:15:49;;;;;;;;;;;;;;;-140.72;0.00;52752.06;5036704;28;19917;-69
2023/04/06 07:18:14;;;;;;;;;;;;;;;-140.72;0.00;52699.31;5022630;28;20339;-69
2023/04/06 07:20:39;;;;;;;;;;;;;;;-140.72;0.00;52750.03;5025320;28;19924;-68
2023/04/06 07:23:05;;;;;;;;;;;;;;;-140.72;0.00;52723.66;5032500;28;19966;-69
2023/04/06 07:25:30;;;;;;;;;;;;;;;-140.72;0.00;52739.88;5034292;28;19917;-68
2023/04/06 07:27:55;;;;;;;;;;;;;;;-140.72;0.00;52743.94;5094429;27;19925;-68
2023/04/06 07:30:21;;;;;;;;;;;;;;;-140.72;0.00;52725.69;5031886;28;19917;-69
2023/04/06 07:32:47;;;;;;;;;;;;;;;-140.72;0.00;52715.53;5025677;28;19925;-69
2023/04/06 07:35:12;;;;;;;;;;;;;;;-140.72;0.00;52739.88;5018676;28;19913;-69
2023/04/06 07:37:37;;;;;;;;;;;;;;;-140.72;0.00;52731.75;5026998;28;19940;-69
2023/04/06 07:40:03;;;;;;;;;;;;;;;-140.72;0.00;52715.53;5037847;28;20294;-69
2023/04/06 07:42:28;;;;;;;;;;;;;;;-140.72;0.00;52691.19;5019776;28;20287;-69
2023/04/06 07:44:53;;;;;;;;;;;;;;;-140.72;0.00;52703.34;5032623;28;19918;-69
2023/04/06 07:47:18;;;;;;;;;;;;;;;-140.72;0.00;52707.41;5066962;28;19917;-69
2023/04/06 07:49:45;;;;;;;;;;;;;;;-140.72;0.00;52739.88;5032615;28;19917;-69
2023/04/06 07:52:10;;;;;;;;;;;;;;;-140.72;0.00;52679.00;5032817;28;19917;-69
2023/04/06 07:54:35;;;;;;;;;;;;;;;-140.72;0.00;52743.94;5031294;28;19924;-69
2023/04/06 07:57:00;;;;;;;;;;;;;;;-140.72;0.00;52725.69;5032539;28;19921;-69
2023/04/06 07:59:25;;;;;;;;;;;;;;;-140.72;0.00;52739.88;5030911;28;19921;-69
2023/04/06 08:01:51;;;;;;;;;;;;;;;-140.72;0.00;52719.59;5028138;28;19923;-69
2023/04/06 08:04:16;;;;;;;;;;;;;;;-140.72;0.00;52723.66;5074415;27;20289;-69
2023/04/06 08:06:44;;;;;;;;;;;;;;;-140.72;0.00;52723.66;5048305;27;20379;-68
2023/04/06 08:09:10;;;;;;;;;;;;;;;-140.72;0.00;52693.22;5032535;28;19917;-68
2023/04/06 08:11:38;;;;;;;;;;;;;;;-140.72;0.00;52741.91;5032339;28;19970;-68
2023/04/06 08:14:03;;;;;;;;;;;;;;;-140.72;0.00;52691.19;5031129;28;19917;-68
2023/04/06 08:16:28;;;;;;;;;;;;;;;-140.72;0.00;52687.13;5032211;28;19917;-68
2023/04/06 08:18:54;;;;;;;;;;;;;;;-140.72;0.00;52715.53;5032478;28;19917;-69
2023/04/06 08:21:19;;;;;;;;;;;;;;;-140.72;12.81;52695.25;5029859;28;19974;-68
2023/04/06 08:23:45;;;;;;;;;;;;;;;-140.72;45.72;52707.41;5032434;28;19917;-68
2023/04/06 08:26:11;;;;;;;;;;;;;;;-140.72;100.00;52687.13;5028020;28;19937;-68
2023/04/06 08:28:36;;;;;;;;;;;;;;;-140.72;100.00;52735.81;5023911;28;19918;-68
2023/04/06 08:31:05;;;;;;;;;;;;;;;-140.72;100.00;52748.00;5038711;28;19921;-69
2023/04/06 08:33:31;;;;;;;;;;;;;;;-140.72;100.00;52752.06;5029231;28;19917;-69
2023/04/06 08:35:56;;;;;;;;;;;;;;;-140.72;100.00;52735.81;5030618;28;19917;-68
2023/04/06 08:38:21;;;;;;;;;;;;;;;-140.72;100.00;52666.84;5032319;28;20054;-69
2023/04/06 08:40:47;;;;;;;;;;;;;;;-140.72;100.00;52691.19;5029487;28;19917;-69
2023/04/06 08:43:13;;;;;;;;;;;;;;;-140.72;100.00;52707.41;5030930;28;20008;-69
2023/04/06 08:45:40;;;;;;;;;;;;;;;-140.72;100.00;52687.13;5031143;28;20301;-68
2023/04/06 08:48:06;;;;;;;;;;;;;;;-140.72;100.00;52709.44;5030766;28;19917;-68
2023/04/06 08:50:32;;;;;;;;;;;;;;;-140.72;100.00;52717.56;5019800;28;20287;-68
2023/04/06 08:52:58;;;;;;;;;;;;;;;-140.72;100.00;52679.00;5025407;28;20356;-68
2023/04/06 08:55:23;;;;;;;;;;;;;;;-140.72;100.00;52713.50;5024904;28;19978;-69
2023/04/06 08:57:49;;;;;;;;;;;;;;;-140.72;100.00;52679.00;5031519;28;20416;-69
2023/04/06 09:00:15;;;;;;;;;;;;;;;-140.72;100.00;52691.19;5018550;28;20283;-69
2023/04/06 09:02:42;;;;;;;;;;;;;;;-140.72;100.00;52709.44;5031792;28;19918;-68
2023/04/06 09:05:09;;;;;;;;;;;;;;;-140.72;100.00;52705.38;5026006;28;19917;-68
2023/04/06 09:07:35;;;;;;;;;;;;;;;-140.72;100.00;52719.59;5023047;28;19944;-68
2023/04/06 09:10:00;;;;;;;;;;;;;;;-140.72;100.00;52676.97;5031465;28;19917;-69
2023/04/06 09:12:30;;;;;;;;;;;;;;;-140.72;100.00;52711.47;5020304;28;20299;-68
2023/04/06 09:14:56;;;;;;;;;;;;;;;-140.72;100.00;52695.25;5022141;28;19966;-69
2023/04/06 09:17:22;;;;;;;;;;;;;;;-140.72;100.00;52723.66;5037641;28;19921;-68
2023/04/06 09:19:48;;;;;;;;;;;;;;;-140.72;100.00;52676.97;5030639;28;19917;-69
2023/04/06 09:22:13;;;;;;;;;;;;;;;-140.72;100.00;52652.63;5019154;28;19917;-69
2023/04/06 09:24:45;;;;;;;;;;;;;;;-140.72;100.00;52709.44;5024643;28;19917;-69
2023/04/06 09:27:10;;;;;;;;;;;;;;;-140.72;100.00;52705.38;5024301;28;19925;-69
2023/04/06 09:29:36;;;;;;;;;;;;;;;-140.72;100.00;52713.50;5029733;28;19917;-68
2023/04/06 09:32:02;;;;;;;;;;;;;;;-140.72;100.00;52695.25;5024496;28;19921;-68
2023/04/06 09:34:27;;;;;;;;;;;;;;;-140.72;100.00;52739.88;5030731;28;19970;-68
2023/04/06 09:36:53;;;;;;;;;;;;;;;-140.72;100.00;52707.41;5030682;28;19925;-68
2023/04/06 09:39:20;;;;;;;;;;;;;;;-140.72;100.00;52711.47;5029622;28;19917;-69
2023/04/06 09:41:48;;;;;;;;;;;;;;;-140.72;100.00;52731.75;5029842;28;19959;-68
2023/04/06 09:44:13;;;;;;;;;;;;;;;-140.72;100.00;52725.69;5037602;28;19942;-68
2023/04/06 09:46:43;;;;;;;;;;;;;;;-140.72;100.00;52723.66;5030234;28;20016;-68
2023/04/06 09:49:10;;;;;;;;;;;;;;;-140.72;100.00;52693.22;5017303;28;19921;-68
2023/04/06 09:51:36;;;;;;;;;;;;;;;-140.72;100.00;52725.69;5038615;28;19917;-68
2023/04/06 09:54:04;;;;;;;;;;;;;;;-140.72;100.00;52725.69;5035424;28;20040;-68
2023/04/06 09:56:55;;;;;;;;;;;;;;;-140.72;100.00;52695.25;5029131;28;19921;-69
2023/04/06 09:59:25;;;;;;;;;;;;;;;-140.72;100.00;52750.03;5096068;27;19974;-69
2023/04/06 10:01:51;;;;;;;;;;;;;;;-140.72;100.00;52729.75;5027461;28;20371;-69
2023/04/06 10:04:26;;;;;;;;;;;;;;;-140.72;100.00;52705.38;5020792;28;19925;-69
2023/04/06 10:06:52;;;;;;;;;;;;;;;-140.72;100.00;52711.47;5033597;28;20032;-69
2023/04/06 10:09:18;;;;;;;;;;;;;;;-140.72;100.00;52745.97;5031157;28;20408;-69
2023/04/06 10:11:44;;;;;;;;;;;;;;;-140.72;100.00;52723.66;5032877;28;19921;-69
2023/04/06 10:14:11;;;;;;;;;;;;;;;-140.72;100.00;52715.53;5039326;28;19917;-69
2023/04/06 10:16:36;;;;;;;;;;;;;;;-140.72;100.00;52711.47;5029087;28;19924;-69
2023/04/06 10:19:06;;;;;;;;;;;;;;;-140.72;100.00;52711.47;5041166;28;19917;-69
2023/04/06 10:21:32;;;;;;;;;;;;;;;-140.72;100.00;52756.13;5029465;28;19921;-69
2023/04/06 10:23:59;;;;;;;;;;;;;;;-140.72;100.00;52748.00;5030264;28;19966;-69
2023/04/06 10:26:24;;;;;;;;;;;;;;;-140.72;100.00;52745.97;5029146;28;20378;-69
2023/04/06 10:28:50;;;;;;;;;;;;;;;-140.72;100.00;52776.41;5016976;28;19970;-68
2023/04/06 10:31:23;;;;;;;;;;;;;;;-140.72;100.00;52762.22;5030405;28;19923;-67
2023/04/06 10:33:56;;;;;;;;;;;;;;;-140.72;100.00;52715.53;5010726;28;20004;-67
2023/04/06 10:36:22;;;;;;;;;;;;;;;-140.72;100.00;52774.38;5037384;28;19921;-69
2023/04/06 10:38:53;;;;;;;;;;;;;;;-140.72;100.00;52764.25;5032460;28;19994;-68
2023/04/06 10:41:18;;;;;;;;;;;;;;;-140.72;100.00;52776.41;5029223;28;19917;-68
2023/04/06 10:43:43;;;;;;;;;;;;;;;-140.72;100.00;52731.75;5028756;28;19925;-68
2023/04/06 10:46:09;;;;;;;;;;;;;;;-140.72;100.00;52762.22;5028540;28;19917;-68
2023/04/06 10:48:39;;;;;;;;;;;;;;;-140.72;100.00;52754.09;5028758;28;19940;-69
2023/04/06 10:51:12;;;;;;;;;;;;;;;-140.72;100.00;52808.88;5030090;28;19948;-68
2023/04/06 10:53:37;;;;;;;;;;;;;;;-140.72;100.00;52762.22;5030657;28;19970;-68
2023/04/06 10:56:03;;;;;;;;;;;;;;;-140.72;100.00;52764.25;5038001;28;19917;-69
2023/04/06 10:58:29;;;;;;;;;;;;;;;-140.72;100.00;52760.19;5041186;28;19933;-69
2023/04/06 11:00:55;;;;;;;;;;;;;;;-140.72;100.00;52741.91;5028762;28;19921;-69
2023/04/06 11:03:21;;;;;;;;;;;;;;;-140.72;100.00;52748.00;5029110;28;19924;-69
2023/04/06 11:05:47;;;;;;;;;;;;;;;-140.72;100.00;52739.88;5022669;28;19918;-69
2023/04/06 11:08:22;;;;;;;;;;;;;;;-140.72;100.00;52772.34;5026639;28;19929;-69
2023/04/06 11:10:49;;;;;;;;;;;;;;;-140.72;100.00;52756.13;5022862;28;19970;-69
2023/04/06 11:13:14;;;;;;;;;;;;;;;-140.72;100.00;52760.19;5026997;28;19921;-69
2023/04/06 11:15:40;;;;;;;;;;;;;;;-140.72;100.00;52762.22;5023470;28;20004;-68
2023/04/06 11:18:05;;;;;;;;;;;;;;;-140.72;100.00;52774.38;5036313;28;20065;-68
2023/04/06 11:20:30;;;;;;;;;;;;;;;-140.72;100.00;52756.13;5040027;28;19969;-68
2023/04/06 11:22:55;;;;;;;;;;;;;;;-140.72;100.00;52768.28;5032749;28;19924;-68
2023/04/06 11:25:21;;;;;;;;;;;;;;;-140.72;100.00;52768.28;5032668;28;20017;-69
2023/04/06 11:27:46;;;;;;;;;;;;;;;-140.72;100.00;52768.28;5032000;28;20413;-69
2023/04/06 11:30:12;;;;;;;;;;;;;;;-140.72;100.00;52782.50;5032108;28;19944;-68
2023/04/06 11:32:44;;;;;;;;;;;;;;;-140.72;100.00;52762.22;5044665;28;19921;-68
2023/04/06 11:35:20;;;;;;;;;;;;;;;-140.72;100.00;52758.16;5031327;28;20298;-68
2023/04/06 11:37:45;;;;;;;;;;;;;;;-140.72;100.00;52768.28;5032539;28;19919;-68
2023/04/06 11:40:11;;;;;;;;;;;;;;;-140.72;100.00;52729.75;5045261;28;20007;-69
2023/04/06 11:42:36;;;;;;;;;;;;;;;-140.72;100.00;52766.25;5031438;28;19917;-69
2023/04/06 11:45:01;;;;;;;;;;;;;;;-140.72;100.00;52790.63;5032320;28;19921;-69
2023/04/06 11:47:27;;;;;;;;;;;;;;;-140.72;100.00;52741.91;5028339;28;19917;-68
2023/04/06 11:49:53;;;;;;;;;;;;;;;-140.72;100.00;52776.41;5032317;28;20003;-68
2023/04/06 11:52:25;;;;;;;;;;;;;;;-140.72;100.00;52780.47;5031759;28;19951;-68
2023/04/06 11:54:51;;;;;;;;;;;;;;;-140.72;100.00;52786.56;5012952;28;20012;-69
2023/04/06 11:57:17;;;;;;;;;;;;;;;-140.72;100.00;52756.13;5025976;28;20391;-68
2023/04/06 11:59:43;;;;;;;;;;;;;;;-140.72;100.00;52780.47;5040994;28;20027;-69
2023/04/06 12:02:09;;;;;;;;;;;;;;;-140.72;100.00;52800.75;5032528;28;20380;-68
2023/04/06 12:04:34;;;;;;;;;;;;;;;-140.72;100.00;52768.28;5031241;28;19965;-68
2023/04/06 12:07:00;;;;;;;;;;;;;;;-140.72;100.00;52764.25;5028169;28;19917;-68
2023/04/06 12:09:25;;;;;;;;;;;;;;;-140.72;100.00;52817.00;5040852;28;19917;-68
2023/04/06 12:11:50;;;;;;;;;;;;;;;-140.72;100.00;52760.19;5024367;28;20447;-69
2023/04/06 12:14:16;;;;;;;;;;;;;;;-140.72;100.00;52780.47;5027306;28;19918;-68
2023/04/06 12:16:41;;;;;;;;;;;;;;;-140.72;100.00;52804.81;5029647;28;19922;-69
2023/04/06 12:19:06;;;;;;;;;;;;;;;-140.72;100.00;52798.72;5028145;28;19966;-68
2023/04/06 12:21:32;;;;;;;;;;;;;;;-140.72;100.00;52776.41;5027070;28;19917;-68
2023/04/06 12:23:58;;;;;;;;;;;;;;;-140.72;100.00;52827.16;5030955;28;19924;-69